createdAt,value
2018-06-02T00:00:10.412Z,9.90
2018-06-02T00:00:43.878Z,11.77
2018-06-02T00:01:17.345Z,12.80
2018-06-02T00:01:50.861Z,14.47
2018-06-02T00:02:24.349Z,11.47
2018-06-02T00:02:57.842Z,13.30
2018-06-02T00:03:31.302Z,13.00
2018-06-02T00:04:04.444Z,10.10
2018-06-02T00:04:38.679Z,14.70
2018-06-02T00:05:12.191Z,19.90
2018-06-02T00:05:45.667Z,14.37
2018-06-02T00:06:19.137Z,12.83
2018-06-02T00:06:52.621Z,17.00
2018-06-02T00:07:26.090Z,11.53
2018-06-02T00:07:59.577Z,14.60
2018-06-02T00:08:33.037Z,10.53
2018-06-02T00:09:07.276Z,12.87
2018-06-02T00:09:40.737Z,10.30
2018-06-02T00:10:15.007Z,13.87
2018-06-02T00:10:48.467Z,14.13
2018-06-02T00:11:22.056Z,15.40
2018-06-02T00:11:55.597Z,13.20
2018-06-02T00:12:29.843Z,11.40
2018-06-02T00:13:03.344Z,12.70
2018-06-02T00:13:36.827Z,13.83
2018-06-02T00:14:10.317Z,14.70
2018-06-02T00:14:43.805Z,13.00
2018-06-02T00:15:17.289Z,10.60
2018-06-02T00:15:50.761Z,12.43
2018-06-02T00:16:24.261Z,14.13
2018-06-02T00:16:57.739Z,11.27
2018-06-02T00:17:31.209Z,15.03
2018-06-02T00:18:04.676Z,10.90
2018-06-02T00:18:38.143Z,10.80
2018-06-02T00:19:12.369Z,13.07
2018-06-02T00:19:45.817Z,13.40
2018-06-02T00:20:20.113Z,14.10
2018-06-02T00:20:54.381Z,15.07
2018-06-02T00:21:27.847Z,12.37
2018-06-02T00:22:01.329Z,15.07
2018-06-02T00:22:34.807Z,10.60
2018-06-02T00:23:08.030Z,14.90
2018-06-02T00:23:41.253Z,17.73
2018-06-02T00:24:14.715Z,13.93
2018-06-02T00:24:48.948Z,15.20
2018-06-02T00:25:22.485Z,13.43
2018-06-02T00:25:55.968Z,14.00
2018-06-02T00:26:29.435Z,17.10
2018-06-02T00:27:03.004Z,22.90
2018-06-02T00:27:36.469Z,13.10
2018-06-02T00:28:09.934Z,17.80
2018-06-02T00:28:44.181Z,13.83
2018-06-02T00:29:17.640Z,11.40
2018-06-02T00:29:51.109Z,11.93
2018-06-02T00:30:25.365Z,12.37
2018-06-02T00:30:58.831Z,13.83
2018-06-02T00:31:32.301Z,14.17
2018-06-02T00:32:05.771Z,13.53
2018-06-02T00:32:39.983Z,13.57
2018-06-02T00:33:13.453Z,15.10
2018-06-02T00:33:47.721Z,17.93
2018-06-02T00:34:21.199Z,15.70
2018-06-02T00:34:54.666Z,14.63
2018-06-02T00:35:28.150Z,14.27
2018-06-02T00:36:01.641Z,19.03
2018-06-02T00:36:35.090Z,17.27
2018-06-02T00:37:08.566Z,16.27
2018-06-02T00:37:42.801Z,17.20
2018-06-02T00:38:16.286Z,19.97
2018-06-02T00:38:49.752Z,15.00
2018-06-02T00:39:23.241Z,20.80
2018-06-02T00:39:56.735Z,13.43
2018-06-02T00:40:30.234Z,14.13
2018-06-02T00:41:03.898Z,17.50
2018-06-02T00:41:37.368Z,14.97
2018-06-02T00:42:11.588Z,16.23
2018-06-02T00:42:45.059Z,17.73
2018-06-02T00:43:19.394Z,23.30
2018-06-02T00:43:52.861Z,16.80
2018-06-02T00:44:26.341Z,16.10
2018-06-02T00:44:59.804Z,17.03
2018-06-02T00:45:34.075Z,14.20
2018-06-02T00:46:07.537Z,13.47
2018-06-02T00:46:41.017Z,16.90
2018-06-02T00:47:14.506Z,13.50
2018-06-02T00:47:47.987Z,17.10
2018-06-02T00:48:21.739Z,15.20
2018-06-02T00:48:55.981Z,18.23
2018-06-02T00:49:29.448Z,15.17
2018-06-02T00:50:02.923Z,15.60
2018-06-02T00:50:37.173Z,18.33
2018-06-02T00:51:10.639Z,19.87
2018-06-02T00:51:44.317Z,17.53
2018-06-02T00:52:17.799Z,16.20
2018-06-02T00:52:51.265Z,14.90
2018-06-02T00:53:25.481Z,14.70
2018-06-02T00:53:58.995Z,19.13
2018-06-02T00:54:43.618Z,13.20
2018-06-02T00:55:17.092Z,16.90
2018-06-02T00:55:51.341Z,19.07
2018-06-02T00:56:24.812Z,15.23
2018-06-02T00:56:58.292Z,15.23
2018-06-02T00:57:31.777Z,20.33
2018-06-02T00:58:05.244Z,19.30
2018-06-02T00:58:38.722Z,14.30
2018-06-02T00:59:12.950Z,16.60
2018-06-02T00:59:46.447Z,15.30
2018-06-02T01:00:19.921Z,19.93
2018-06-02T01:00:53.413Z,20.30
2018-06-02T01:01:26.888Z,21.73
2018-06-02T01:02:00.394Z,16.20
2018-06-02T01:02:34.027Z,23.83
2018-06-02T01:03:07.925Z,20.23
2018-06-02T01:03:42.160Z,15.90
2018-06-02T01:04:15.628Z,18.43
2018-06-02T01:04:49.158Z,20.97
2018-06-02T01:05:22.634Z,18.53
2018-06-02T01:05:56.131Z,17.10
2018-06-02T01:06:29.606Z,15.67
2018-06-02T01:07:03.094Z,20.60
2018-06-02T01:07:36.582Z,15.03
2018-06-02T01:08:10.064Z,17.07
2018-06-02T01:08:43.560Z,16.80
2018-06-02T01:09:17.038Z,18.10
2018-06-02T01:09:50.564Z,22.13
2018-06-02T01:10:24.798Z,16.13
2018-06-02T01:10:58.311Z,18.57
2018-06-02T01:11:31.543Z,15.23
2018-06-02T01:12:04.336Z,17.77
2018-06-02T01:12:37.475Z,17.37
2018-06-02T01:13:11.814Z,23.67
2018-06-02T01:13:45.278Z,20.63
2018-06-02T01:14:18.734Z,18.30
2018-06-02T01:14:52.267Z,20.17
2018-06-02T01:15:25.744Z,17.57
2018-06-02T01:15:59.238Z,19.30
2018-06-02T01:16:32.702Z,21.17
2018-06-02T01:17:06.162Z,21.03
2018-06-02T01:17:40.415Z,27.13
2018-06-02T01:18:13.864Z,21.73
2018-06-02T01:18:48.092Z,28.23
2018-06-02T01:19:21.550Z,19.40
2018-06-02T01:19:55.796Z,23.87
2018-06-02T01:20:29.273Z,24.13
2018-06-02T01:21:02.770Z,23.23
2018-06-02T01:21:36.245Z,20.67
2018-06-02T01:22:09.742Z,21.97
2018-06-02T01:22:43.216Z,17.50
2018-06-02T01:23:16.354Z,20.53
2018-06-02T01:23:50.593Z,16.97
2018-06-02T01:24:24.076Z,20.07
2018-06-02T01:24:57.538Z,17.67
2018-06-02T01:25:31.017Z,21.23
2018-06-02T01:26:05.278Z,24.00
2018-06-02T01:26:38.738Z,18.50
2018-06-02T01:27:12.453Z,19.47
2018-06-02T01:27:45.958Z,18.30
2018-06-02T01:28:19.436Z,18.40
2018-06-02T01:28:52.916Z,17.17
2018-06-02T01:29:26.392Z,25.70
2018-06-02T01:29:59.857Z,30.57
2018-06-02T01:30:33.333Z,18.87
2018-06-02T01:31:06.848Z,17.60
2018-06-02T01:31:40.312Z,22.70
2018-06-02T01:32:13.790Z,19.27
2018-06-02T01:32:47.254Z,20.37
2018-06-02T01:33:20.714Z,20.47
2018-06-02T01:33:54.953Z,22.30
2018-06-02T01:34:28.488Z,18.73
2018-06-02T01:35:01.960Z,23.87
2018-06-02T01:35:35.442Z,20.53
2018-06-02T01:36:08.930Z,22.70
2018-06-02T01:36:42.390Z,18.53
2018-06-02T01:37:15.872Z,19.80
2018-06-02T01:37:49.339Z,28.43
2018-06-02T01:38:22.812Z,18.23
2018-06-02T01:38:57.051Z,20.10
2018-06-02T01:39:30.532Z,20.47
2018-06-02T01:40:04.107Z,17.20
2018-06-02T01:40:37.601Z,16.73
2018-06-02T01:41:11.093Z,20.23
2018-06-02T01:41:44.562Z,18.03
2018-06-02T01:42:18.011Z,19.60
2018-06-02T01:42:52.252Z,16.50
2018-06-02T01:43:25.698Z,14.17
2018-06-02T01:43:59.926Z,13.90
2018-06-02T01:44:33.381Z,15.23
2018-06-02T01:45:08.917Z,17.37
2018-06-02T01:45:42.386Z,18.50
2018-06-02T01:46:15.889Z,16.50
2018-06-02T01:46:49.378Z,14.40
2018-06-02T01:47:23.624Z,15.40
2018-06-02T01:47:57.088Z,15.47
2018-06-02T01:48:30.224Z,13.07
2018-06-02T01:49:03.696Z,15.23
2018-06-02T01:49:37.678Z,16.77
2018-06-02T01:50:11.152Z,16.53
2018-06-02T01:50:44.613Z,17.47
2018-06-02T01:51:18.120Z,17.17
2018-06-02T01:51:51.585Z,14.10
2018-06-02T01:52:25.078Z,11.97
2018-06-02T01:52:58.544Z,17.40
2018-06-02T01:53:32.022Z,18.13
2018-06-02T01:54:06.253Z,19.53
2018-06-02T01:54:40.761Z,17.83
2018-06-02T01:55:14.235Z,16.63
2018-06-02T01:55:47.703Z,12.13
2018-06-02T01:56:21.978Z,13.47
2018-06-02T01:56:55.434Z,18.00
2018-06-02T01:57:28.895Z,16.17
2018-06-02T01:58:02.367Z,11.60
2018-06-02T01:58:35.827Z,15.87
2018-06-02T01:59:09.304Z,21.13
2018-06-02T01:59:42.778Z,13.00
2018-06-02T02:00:16.259Z,16.70
2018-06-02T02:00:49.743Z,17.40
2018-06-02T02:01:23.229Z,15.93
2018-06-02T02:01:56.713Z,18.40
2018-06-02T02:02:30.182Z,16.13
2018-06-02T02:03:03.655Z,22.83
2018-06-02T02:03:37.874Z,14.67
2018-06-02T02:04:11.356Z,12.83
2018-06-02T02:04:44.847Z,13.03
2018-06-02T02:05:18.320Z,20.50
2018-06-02T02:05:51.778Z,19.67
2018-06-02T02:06:25.284Z,14.60
2018-06-02T02:06:58.746Z,26.37
2018-06-02T02:07:32.230Z,12.63
2018-06-02T02:08:05.703Z,13.97
2018-06-02T02:08:39.938Z,16.77
2018-06-02T02:09:13.401Z,12.77
2018-06-02T02:09:46.864Z,14.47
2018-06-02T02:10:20.321Z,22.70
2018-06-02T02:10:53.771Z,17.97
2018-06-02T02:11:27.289Z,13.97
2018-06-02T02:12:00.769Z,27.10
2018-06-02T02:12:33.904Z,21.47
2018-06-02T02:13:07.368Z,16.47
2018-06-02T02:13:41.622Z,18.17
2018-06-02T02:14:15.096Z,17.97
2018-06-02T02:14:48.560Z,13.37
2018-06-02T02:15:22.040Z,18.97
2018-06-02T02:15:56.278Z,15.30
2018-06-02T02:16:29.768Z,15.17
2018-06-02T02:17:03.247Z,19.00
2018-06-02T02:17:36.728Z,18.37
2018-06-02T02:18:10.214Z,16.17
2018-06-02T02:18:43.706Z,14.47
2018-06-02T02:19:17.189Z,11.73
2018-06-02T02:19:50.718Z,17.13
2018-06-02T02:20:24.202Z,20.23
2018-06-02T02:20:57.671Z,13.47
2018-06-02T02:21:31.170Z,17.93
2018-06-02T02:22:04.665Z,17.57
2018-06-02T02:22:38.886Z,24.90
2018-06-02T02:23:12.350Z,17.00
2018-06-02T02:23:46.247Z,18.57
2018-06-02T02:24:20.515Z,15.83
2018-06-02T02:24:54.005Z,16.63
2018-06-02T02:25:27.485Z,35.10
2018-06-02T02:26:00.946Z,19.20
2018-06-02T02:26:34.440Z,18.43
2018-06-02T02:27:07.942Z,25.40
2018-06-02T02:27:41.427Z,14.93
2018-06-02T02:28:14.919Z,19.73
2018-06-02T02:28:48.391Z,21.43
2018-06-02T02:29:21.880Z,16.83
2018-06-02T02:29:55.368Z,13.77
2018-06-02T02:30:28.848Z,16.60
2018-06-02T02:31:02.332Z,15.27
2018-06-02T02:31:35.843Z,21.73
2018-06-02T02:32:09.328Z,25.80
2018-06-02T02:32:42.789Z,17.20
2018-06-02T02:33:16.273Z,14.93
2018-06-02T02:33:49.761Z,16.90
2018-06-02T02:34:23.243Z,16.23
2018-06-02T02:34:56.728Z,15.20
2018-06-02T02:35:29.858Z,22.47
2018-06-02T02:36:03.335Z,23.43
2018-06-02T02:36:37.594Z,13.77
2018-06-02T02:37:11.077Z,18.03
2018-06-02T02:37:44.562Z,12.13
2018-06-02T02:38:17.704Z,20.83
2018-06-02T02:38:51.170Z,17.40
2018-06-02T02:39:24.652Z,19.93
2018-06-02T02:39:58.088Z,14.00
2018-06-02T02:40:31.578Z,15.70
2018-06-02T02:41:05.085Z,14.23
2018-06-02T02:41:38.591Z,14.60
2018-06-02T02:42:12.076Z,17.83
2018-06-02T02:42:46.340Z,16.57
2018-06-02T02:43:19.798Z,17.30
2018-06-02T02:43:53.267Z,10.27
2018-06-02T02:44:26.747Z,12.97
2018-06-02T02:45:00.228Z,13.87
2018-06-02T02:45:33.695Z,12.90
2018-06-02T02:46:06.834Z,19.27
2018-06-02T02:46:40.334Z,18.03
2018-06-02T02:47:13.802Z,14.30
2018-06-02T02:47:47.271Z,14.00
2018-06-02T02:48:20.737Z,12.37
2018-06-02T02:48:54.196Z,13.17
2018-06-02T02:49:28.463Z,16.33
2018-06-02T02:50:01.920Z,19.40
2018-06-02T02:50:35.418Z,17.30
2018-06-02T02:51:08.918Z,13.20
2018-06-02T02:51:42.418Z,14.07
2018-06-02T02:52:15.875Z,15.03
2018-06-02T02:52:49.332Z,13.57
2018-06-02T02:53:22.811Z,15.33
2018-06-02T02:53:56.305Z,17.37
2018-06-02T02:54:29.772Z,16.80
2018-06-02T02:55:03.671Z,15.33
2018-06-02T02:55:37.905Z,15.33
2018-06-02T02:56:11.376Z,13.93
2018-06-02T02:56:44.893Z,15.10
2018-06-02T02:57:18.380Z,12.67
2018-06-02T02:57:51.864Z,23.17
2018-06-02T02:58:25.315Z,16.33
2018-06-02T02:58:58.797Z,13.03
2018-06-02T02:59:32.261Z,18.53
2018-06-02T03:00:06.490Z,17.40
2018-06-02T03:00:39.977Z,17.07
2018-06-02T03:01:13.454Z,19.43
2018-06-02T03:01:46.980Z,20.07
2018-06-02T03:02:20.460Z,18.10
2018-06-02T03:02:53.918Z,23.80
2018-06-02T03:03:27.394Z,16.13
2018-06-02T03:04:00.859Z,18.87
2018-06-02T03:04:35.120Z,25.87
2018-06-02T03:05:09.372Z,21.17
2018-06-02T03:05:43.612Z,20.00
2018-06-02T03:06:17.076Z,19.33
2018-06-02T03:06:50.568Z,17.47
2018-06-02T03:07:24.044Z,20.73
2018-06-02T03:07:57.518Z,16.87
2018-06-02T03:08:30.996Z,16.50
2018-06-02T03:09:04.552Z,15.70
2018-06-02T03:09:38.023Z,18.10
2018-06-02T03:10:11.470Z,16.57
2018-06-02T03:10:44.927Z,17.30
2018-06-02T03:11:19.172Z,17.80
2018-06-02T03:11:52.686Z,18.63
2018-06-02T03:12:26.175Z,21.30
2018-06-02T03:12:59.650Z,14.93
2018-06-02T03:13:33.118Z,12.07
2018-06-02T03:14:06.584Z,18.10
2018-06-02T03:14:40.044Z,19.00
2018-06-02T03:15:14.290Z,27.50
2018-06-02T03:15:47.753Z,21.80
2018-06-02T03:16:21.211Z,13.13
2018-06-02T03:16:55.546Z,21.23
2018-06-02T03:17:29.025Z,16.93
2018-06-02T03:18:02.510Z,19.73
2018-06-02T03:18:35.984Z,13.17
2018-06-02T03:19:10.220Z,15.83
2018-06-02T03:19:43.688Z,14.43
2018-06-02T03:20:17.151Z,16.70
2018-06-02T03:20:51.382Z,14.47
2018-06-02T03:21:24.832Z,15.23
2018-06-02T03:21:59.098Z,15.07
2018-06-02T03:22:32.581Z,25.07
2018-06-02T03:23:05.724Z,13.63
2018-06-02T03:23:39.189Z,19.30
2018-06-02T03:24:13.520Z,10.93
2018-06-02T03:24:46.977Z,15.60
2018-06-02T03:25:21.214Z,14.20
2018-06-02T03:25:54.684Z,14.47
2018-06-02T03:26:28.172Z,14.40
2018-06-02T03:27:01.666Z,11.07
2018-06-02T03:27:35.140Z,9.77
2018-06-02T03:28:08.602Z,13.73
2018-06-02T03:28:42.829Z,17.23
2018-06-02T03:29:16.295Z,13.20
2018-06-02T03:29:50.534Z,13.70
2018-06-02T03:30:24.000Z,15.53
2018-06-02T03:30:57.499Z,13.63
2018-06-02T03:31:31.015Z,12.00
2018-06-02T03:32:05.020Z,15.80
2018-06-02T03:32:38.493Z,12.10
2018-06-02T03:33:12.152Z,13.33
2018-06-02T03:33:45.625Z,14.10
2018-06-02T03:34:19.093Z,15.50
2018-06-02T03:34:53.711Z,13.03
2018-06-02T03:35:27.184Z,14.03
2018-06-02T03:36:01.410Z,11.60
2018-06-02T03:36:34.873Z,12.83
2018-06-02T03:37:09.106Z,14.07
2018-06-02T03:37:42.579Z,13.53
2018-06-02T03:38:16.041Z,12.30
2018-06-02T03:38:50.277Z,11.77
2018-06-02T03:39:23.737Z,10.27
2018-06-02T03:39:57.946Z,14.30
2018-06-02T03:40:31.081Z,16.20
2018-06-02T03:41:04.550Z,11.77
2018-06-02T03:41:38.010Z,13.40
2018-06-02T03:42:11.499Z,18.10
2018-06-02T03:42:44.954Z,18.20
2018-06-02T03:43:18.414Z,13.23
2018-06-02T03:43:51.872Z,22.40
2018-06-02T03:44:25.340Z,14.43
2018-06-02T03:44:58.560Z,14.13
2018-06-02T03:45:32.231Z,12.93
2018-06-02T03:46:05.710Z,15.60
2018-06-02T03:46:39.196Z,11.53
2018-06-02T03:47:12.706Z,15.57
2018-06-02T03:47:46.960Z,14.47
2018-06-02T03:48:20.436Z,14.00
2018-06-02T03:48:53.901Z,17.23
2018-06-02T03:49:28.158Z,14.70
2018-06-02T03:50:01.624Z,13.30
2018-06-02T03:50:35.139Z,16.03
2018-06-02T03:51:08.606Z,13.43
2018-06-02T03:51:42.088Z,12.33
2018-06-02T03:52:15.596Z,12.90
2018-06-02T03:52:49.074Z,21.03
2018-06-02T03:53:22.573Z,10.50
2018-06-02T03:53:56.062Z,10.83
2018-06-02T03:54:29.513Z,13.70
2018-06-02T03:55:02.979Z,11.20
2018-06-02T03:55:36.452Z,11.90
2018-06-02T03:56:09.930Z,13.50
2018-06-02T03:56:43.396Z,11.17
2018-06-02T03:57:17.770Z,13.00
2018-06-02T03:57:51.326Z,14.30
2018-06-02T03:58:24.566Z,10.87
2018-06-02T03:58:58.810Z,10.00
2018-06-02T03:59:32.289Z,10.37
2018-06-02T04:00:05.423Z,11.53
2018-06-02T04:00:38.902Z,12.70
2018-06-02T04:01:12.374Z,11.20
2018-06-02T04:01:45.839Z,12.70
2018-06-02T04:02:19.348Z,14.70
2018-06-02T04:02:54.316Z,14.13
2018-06-02T04:03:27.824Z,12.23
2018-06-02T04:04:01.302Z,14.77
2018-06-02T04:04:34.778Z,17.37
2018-06-02T04:05:08.275Z,11.43
2018-06-02T04:05:41.758Z,10.97
2018-06-02T04:06:15.238Z,11.40
2018-06-02T04:06:48.755Z,12.30
2018-06-02T04:07:22.272Z,12.70
2018-06-02T04:07:56.515Z,11.50
2018-06-02T04:08:30.004Z,14.57
2018-06-02T04:09:02.910Z,12.40
2018-06-02T04:09:37.205Z,11.40
2018-06-02T04:10:10.692Z,14.80
2018-06-02T04:10:44.177Z,10.13
2018-06-02T04:11:17.668Z,11.80
2018-06-02T04:11:51.126Z,14.03
2018-06-02T04:12:24.611Z,10.67
2018-06-02T04:12:58.286Z,10.57
2018-06-02T04:13:31.751Z,9.50
2018-06-02T04:14:04.892Z,11.13
2018-06-02T04:14:38.360Z,15.50
2018-06-02T04:15:11.808Z,16.23
2018-06-02T04:15:45.329Z,10.80
2018-06-02T04:16:19.702Z,13.20
2018-06-02T04:16:53.152Z,10.43
2018-06-02T04:17:27.415Z,13.30
2018-06-02T04:18:00.872Z,11.50
2018-06-02T04:18:34.342Z,11.27
2018-06-02T05:03:06.563Z,7.37
2018-06-02T05:03:41.580Z,14.60
2018-06-02T05:04:15.069Z,10.37
2018-06-02T05:04:49.309Z,13.13
2018-06-02T05:05:22.907Z,11.17
2018-06-02T05:05:56.549Z,11.20
2018-06-02T05:06:30.765Z,8.50
2018-06-02T05:07:05.009Z,10.80
2018-06-02T05:07:38.476Z,8.53
2018-06-02T05:08:11.966Z,8.97
2018-06-02T05:08:45.454Z,8.80
2018-06-02T05:09:18.902Z,14.00
2018-06-02T05:09:53.159Z,15.67
2018-06-02T05:10:26.617Z,8.90
2018-06-02T05:11:00.108Z,12.10
2018-06-02T05:11:33.591Z,9.87
2018-06-02T05:12:07.075Z,11.50
2018-06-02T05:12:40.566Z,7.53
2018-06-02T05:13:14.015Z,9.00
2018-06-02T05:13:47.520Z,10.13
2018-06-02T05:14:21.751Z,9.57
2018-06-02T05:14:55.222Z,10.17
2018-06-02T05:15:28.673Z,7.60
2018-06-02T05:16:02.141Z,8.83
2018-06-02T05:16:36.399Z,6.70
2018-06-02T05:17:09.856Z,9.80
2018-06-02T05:17:44.111Z,8.43
2018-06-02T05:18:17.583Z,9.60
2018-06-02T05:18:51.105Z,7.00
2018-06-02T05:19:24.601Z,8.27
2018-06-02T05:19:58.079Z,9.10
2018-06-02T05:20:31.546Z,9.67
2018-06-02T05:21:05.022Z,8.30
2018-06-02T05:21:38.471Z,8.37
2018-06-02T05:22:11.931Z,12.60
2018-06-02T05:22:46.176Z,9.23
2018-06-02T05:23:19.673Z,7.77
2018-06-02T05:23:53.149Z,6.50
2018-06-02T05:24:26.610Z,7.63
2018-06-02T05:25:00.087Z,10.07
2018-06-02T05:25:34.339Z,6.47
2018-06-02T05:26:07.489Z,8.13
2018-06-02T05:26:40.954Z,10.83
2018-06-02T05:27:14.431Z,9.30
2018-06-02T05:27:48.685Z,7.80
2018-06-02T05:28:22.180Z,10.07
2018-06-02T05:28:55.687Z,8.50
2018-06-02T05:29:29.147Z,8.80
2018-06-02T05:30:02.605Z,8.80
2018-06-02T05:30:36.081Z,11.13
2018-06-02T05:31:09.541Z,11.00
2018-06-02T05:31:43.766Z,9.47
2018-06-02T05:32:17.233Z,10.53
2018-06-02T05:32:51.515Z,15.23
2018-06-02T05:33:24.985Z,8.00
2018-06-02T05:33:59.258Z,9.97
2018-06-02T05:34:32.745Z,8.93
2018-06-02T05:35:06.213Z,12.30
2018-06-02T05:35:39.733Z,7.30
2018-06-02T05:36:13.371Z,13.20
2018-06-02T05:36:47.599Z,7.13
2018-06-02T05:37:21.066Z,9.67
2018-06-02T05:37:54.515Z,7.70
2018-06-02T05:38:29.492Z,9.07
2018-06-02T05:39:02.771Z,11.60
2018-06-02T05:39:36.254Z,14.80
2018-06-02T05:40:09.733Z,9.13
2018-06-02T05:40:43.197Z,7.40
2018-06-02T05:41:16.653Z,7.73
2018-06-02T05:41:50.119Z,9.50
2018-06-02T05:42:23.585Z,12.20
2018-06-02T05:42:57.035Z,10.07
2018-06-02T05:43:30.505Z,8.17
2018-06-02T05:44:04.431Z,11.70
2018-06-02T05:44:37.905Z,22.20
2018-06-02T05:45:11.379Z,10.50
2018-06-02T05:45:45.617Z,17.67
2018-06-02T05:46:19.095Z,12.13
2018-06-02T05:46:52.539Z,9.20
2018-06-02T05:47:26.011Z,7.23
2018-06-02T05:47:59.475Z,9.20
2018-06-02T05:48:32.937Z,9.50
2018-06-02T05:49:06.089Z,7.53
2018-06-02T05:49:39.615Z,7.93
2018-06-02T05:50:13.111Z,7.53
2018-06-02T05:50:46.592Z,8.67
2018-06-02T05:51:20.073Z,10.00
2018-06-02T05:51:53.201Z,11.23
2018-06-02T05:52:27.451Z,7.60
2018-06-02T05:53:00.971Z,7.87
2018-06-02T05:53:34.436Z,6.93
2018-06-02T05:54:07.939Z,7.33
2018-06-02T05:54:41.445Z,9.43
2018-06-02T05:55:15.077Z,16.10
2018-06-02T05:55:48.206Z,8.23
2018-06-02T05:56:22.721Z,8.77
2018-06-02T05:56:56.942Z,5.90
2018-06-02T05:57:30.099Z,10.80
2018-06-02T05:58:04.008Z,6.47
2018-06-02T05:58:37.482Z,9.50
2018-06-02T05:59:11.839Z,8.37
2018-06-02T05:59:45.338Z,10.40
2018-06-02T06:00:18.981Z,11.40
2018-06-02T06:00:52.503Z,7.90
2018-06-02T06:01:25.976Z,6.70
2018-06-02T06:01:59.441Z,5.73
2018-06-02T06:02:32.911Z,10.60
2018-06-02T06:03:06.388Z,10.23
2018-06-02T06:03:39.873Z,7.57
2018-06-02T06:04:14.128Z,10.00
2018-06-02T06:04:47.586Z,9.47
2018-06-02T06:05:21.045Z,9.70
2018-06-02T06:05:54.652Z,10.20
2018-06-02T06:06:28.162Z,10.63
2018-06-02T06:07:01.643Z,10.27
2018-06-02T06:07:35.112Z,12.70
2018-06-02T06:08:08.609Z,9.00
2018-06-02T06:08:42.078Z,9.00
2018-06-02T06:09:15.580Z,9.33
2018-06-02T06:09:49.067Z,7.73
2018-06-02T06:10:22.571Z,10.23
2018-06-02T06:10:56.083Z,10.33
2018-06-02T06:11:30.296Z,6.27
2018-06-02T06:12:04.523Z,8.50
2018-06-02T06:12:37.995Z,12.47
2018-06-02T06:13:11.455Z,12.53
2018-06-02T06:13:45.670Z,7.43
2018-06-02T06:14:19.981Z,10.03
2018-06-02T06:14:53.494Z,6.60
2018-06-02T06:15:26.949Z,11.87
2018-06-02T06:16:00.437Z,12.40
2018-06-02T06:16:33.944Z,11.20
2018-06-02T06:17:07.431Z,9.37
2018-06-02T06:17:40.913Z,11.43
2018-06-02T06:18:14.393Z,8.63
2018-06-02T06:18:47.864Z,6.90
2018-06-02T06:19:21.358Z,10.43
2018-06-02T06:19:54.851Z,10.90
2018-06-02T06:20:28.587Z,8.80
2018-06-02T06:21:02.819Z,11.90
2018-06-02T06:21:37.149Z,9.50
2018-06-02T06:22:10.681Z,9.83
2018-06-02T06:22:44.139Z,11.47
2018-06-02T06:23:17.617Z,9.57
2018-06-02T06:23:51.463Z,7.33
2018-06-02T06:24:25.711Z,8.67
2018-06-02T06:24:59.211Z,8.00
2018-06-02T06:25:32.688Z,8.43
2018-06-02T06:26:06.189Z,7.43
2018-06-02T06:26:39.322Z,10.90
2018-06-02T06:27:12.837Z,7.60
2018-06-02T06:27:46.323Z,7.07
2018-06-02T06:28:19.939Z,9.93
2018-06-02T06:28:54.947Z,9.80
2018-06-02T06:29:28.444Z,12.93
2018-06-02T06:30:01.929Z,13.10
2018-06-02T06:30:35.385Z,12.90
2018-06-02T06:31:08.875Z,11.93
2018-06-02T06:31:42.365Z,10.80
2018-06-02T06:32:15.819Z,10.20
2018-06-02T06:32:49.355Z,9.40
2018-06-02T06:33:23.024Z,10.20
2018-06-02T06:33:56.525Z,9.67
2018-06-02T06:34:30.045Z,11.60
2018-06-02T06:35:04.297Z,11.50
2018-06-02T06:35:37.777Z,11.17
2018-06-02T06:36:11.267Z,15.73
2018-06-02T06:36:44.790Z,14.03
2018-06-02T06:37:19.029Z,10.13
2018-06-02T06:37:52.517Z,12.70
2018-06-02T06:38:25.996Z,12.27
2018-06-02T06:38:59.501Z,9.37
2018-06-02T06:39:33.237Z,12.60
2018-06-02T06:40:07.463Z,17.43
2018-06-02T06:40:40.601Z,11.53
2018-06-02T06:41:14.081Z,11.37
2018-06-02T06:41:47.583Z,11.83
2018-06-02T06:42:21.823Z,7.43
2018-06-02T06:42:55.327Z,8.70
2018-06-02T06:43:28.823Z,12.03
2018-06-02T06:44:02.300Z,10.87
2018-06-02T06:44:35.877Z,9.03
2018-06-02T06:45:09.469Z,10.27
2018-06-02T06:45:42.961Z,13.73
2018-06-02T06:46:16.443Z,8.50
2018-06-02T06:46:49.939Z,8.03
2018-06-02T06:47:23.431Z,8.87
2018-06-02T06:47:56.946Z,10.90
2018-06-02T06:48:31.195Z,15.87
2018-06-02T06:49:04.692Z,13.17
2018-06-02T06:49:38.209Z,11.60
2018-06-02T06:50:13.736Z,13.57
2018-06-02T06:50:48.022Z,16.50
2018-06-02T06:51:21.494Z,8.60
2018-06-02T06:51:55.004Z,18.53
2018-06-02T06:52:28.559Z,17.90
2018-06-02T06:53:02.042Z,16.90
2018-06-02T06:53:35.619Z,12.00
2018-06-02T06:54:09.085Z,12.20
2018-06-02T06:54:43.343Z,17.47
2018-06-02T06:55:16.824Z,11.03
2018-06-02T06:55:51.088Z,10.47
2018-06-02T06:56:24.563Z,16.33
2018-06-02T06:56:58.057Z,11.43
2018-06-02T06:57:31.529Z,15.93
2018-06-02T06:58:05.446Z,15.83
2018-06-02T06:58:38.939Z,9.53
2018-06-02T06:59:12.409Z,16.03
2018-06-02T06:59:45.930Z,12.83
2018-06-02T07:00:19.411Z,15.80
2018-06-02T07:00:52.949Z,13.33
2018-06-02T07:01:27.201Z,10.93
2018-06-02T07:02:00.716Z,10.23
2018-06-02T07:02:35.033Z,12.50
2018-06-02T07:03:09.275Z,9.70
2018-06-02T07:03:42.772Z,10.77
2018-06-02T07:04:16.264Z,9.90
2018-06-02T07:04:49.783Z,10.50
2018-06-02T07:05:24.032Z,12.23
2018-06-02T07:05:57.565Z,13.13
2018-06-02T07:06:31.035Z,12.43
2018-06-02T07:07:04.534Z,16.40
2018-06-02T07:07:38.763Z,15.30
2018-06-02T07:08:12.982Z,14.40
2018-06-02T07:08:46.467Z,12.47
2018-06-02T07:09:19.942Z,11.80
2018-06-02T07:09:53.470Z,12.70
2018-06-02T07:10:26.945Z,14.60
2018-06-02T07:11:00.423Z,13.90
2018-06-02T07:11:33.908Z,12.97
2018-06-02T07:12:07.451Z,17.93
2018-06-02T07:12:41.066Z,10.33
2018-06-02T07:13:14.553Z,13.23
2018-06-02T07:13:48.039Z,11.80
2018-06-02T07:14:21.520Z,13.77
2018-06-02T07:14:55.020Z,11.73
2018-06-02T07:15:28.491Z,11.97
2018-06-02T07:16:01.974Z,10.77
2018-06-02T07:16:35.442Z,12.07
2018-06-02T07:17:09.696Z,16.00
2018-06-02T07:17:43.288Z,12.53
2018-06-02T07:18:17.659Z,12.07
2018-06-02T07:18:51.122Z,9.70
2018-06-02T07:19:25.361Z,10.17
2018-06-02T07:19:58.874Z,12.60
2018-06-02T07:20:32.362Z,11.90
2018-06-02T07:21:05.190Z,10.90
2018-06-02T07:21:38.735Z,11.27
2018-06-02T07:22:12.227Z,10.63
2018-06-02T07:22:45.729Z,10.50
2018-06-02T07:23:19.992Z,11.10
2018-06-02T07:23:53.486Z,13.33
2018-06-02T07:24:26.970Z,12.90
2018-06-02T07:25:00.258Z,11.87
2018-06-02T07:25:34.517Z,12.60
2018-06-02T07:26:07.995Z,11.07
2018-06-02T07:26:41.520Z,12.37
2018-06-02T07:27:15.026Z,11.83
2018-06-02T07:27:48.500Z,14.33
2018-06-02T07:28:21.977Z,10.60
2018-06-02T07:28:55.467Z,11.63
2018-06-02T07:29:28.936Z,9.33
2018-06-02T07:30:02.445Z,8.70
2018-06-02T07:30:36.693Z,12.10
2018-06-02T07:31:10.178Z,11.80
2018-06-02T07:31:43.662Z,9.40
2018-06-02T07:32:17.149Z,26.40
2018-06-02T07:32:50.649Z,11.30
2018-06-02T07:33:23.808Z,8.57
2018-06-02T07:33:57.300Z,13.70
2018-06-02T07:34:30.794Z,10.63
2018-06-02T07:35:04.318Z,10.43
2018-06-02T07:35:37.782Z,11.73
2018-06-02T07:36:11.341Z,12.13
2018-06-02T07:36:44.962Z,12.40
2018-06-02T07:37:18.524Z,17.33
2018-06-02T07:37:52.006Z,11.40
2018-06-02T07:38:25.491Z,10.73
2018-06-02T07:38:58.970Z,18.50
2018-06-02T07:39:32.434Z,15.53
2018-06-02T07:40:05.948Z,9.07
2018-06-02T07:40:39.425Z,12.80
2018-06-02T07:41:12.896Z,10.00
2018-06-02T07:41:46.376Z,17.80
2018-06-02T07:42:19.858Z,10.13
2018-06-02T07:42:53.324Z,12.53
2018-06-02T07:43:26.808Z,14.83
2018-06-02T07:44:01.048Z,9.27
2018-06-02T07:44:34.518Z,9.63
2018-06-02T07:45:08.032Z,12.33
2018-06-02T07:45:41.518Z,9.33
2018-06-02T07:46:14.996Z,8.70
2018-06-02T07:46:48.455Z,9.63
2018-06-02T07:47:21.976Z,8.47
2018-06-02T07:47:55.488Z,9.10
2018-06-02T07:48:28.986Z,15.33
2018-06-02T07:49:02.452Z,14.93
2018-06-02T07:49:35.943Z,14.63
2018-06-02T07:50:09.125Z,13.43
2018-06-02T07:50:42.780Z,8.30
2018-06-02T07:51:16.246Z,7.57
2018-06-02T07:51:49.731Z,12.37
2018-06-02T07:52:23.205Z,10.13
2018-06-02T07:52:56.690Z,12.33
2018-06-02T07:53:30.166Z,14.47
2018-06-02T07:54:04.397Z,11.03
2018-06-02T07:54:37.877Z,11.33
2018-06-02T07:55:11.368Z,12.70
2018-06-02T07:55:44.892Z,10.27
2018-06-02T07:56:18.387Z,11.53
2018-06-02T07:56:51.866Z,8.87
2018-06-02T07:57:25.351Z,11.10
2018-06-02T07:58:00.353Z,7.93
2018-06-02T07:58:33.834Z,13.70
2018-06-02T07:59:06.626Z,14.73